Aviation Digital Data Service (ADDS)

Output produced by METARs form (1404 UTC 21 August 2019)
found at http://www.aviationweather.gov/metar/data/
 
Forecast for: OEMA (MADINAH INTL ARP, SA)
Text: TAF OEMA 211100Z 2112/2218 24016KT 9999 FEW045
Forecast period: 1200 to 1600 UTC 21 August 2019
Forecast type: FROM: standard forecast or significant change
Winds: from the WSW (240 degrees) at 18 MPH (16 knots; 8.2 m/s)
Visibility: 6 or more miles 10+ km)
Ceiling: at least 12,000 feet AGL
Clouds: few clouds at 4500 feet AGL
Weather: no significant weather forecast for this period
Text: BECMG 2116/2118 30006KT
Forecast period: 1600 UTC 21 August 2019 to 1800 UTC 22 August 2019
Forecast type: BECOMING: Conditions expected to become as follows by 1800 UTC 21 August 2019
Winds: from the WNW (300 degrees) at 7 MPH (6 knots; 3.1 m/s)
Visibility: 6 or more miles 10+ km)
Ceiling: at least 12,000 feet AGL
Clouds: few clouds at 4500 feet AGL
Weather: no significant weather forecast for this period